sensor_id;sensor_type;location;lat;lon;timestamp;P1;durP1;ratioP1;P2;durP2;ratioP2
5951;SDS011;3001;42.622;23.194;2022-09-12T00:01:02;3.67;;;3.47;;
5951;SDS011;3001;42.622;23.194;2022-09-12T00:03:30;3.07;;;2.97;;
5951;SDS011;3001;42.622;23.194;2022-09-12T00:05:58;4.70;;;2.97;;
5951;SDS011;3001;42.622;23.194;2022-09-12T00:08:24;2.70;;;2.60;;
5951;SDS011;3001;42.622;23.194;2022-09-12T00:10:53;3.20;;;3.00;;
5951;SDS011;3001;42.622;23.194;2022-09-12T00:13:19;3.27;;;3.17;;
5951;SDS011;3001;42.622;23.194;2022-09-12T00:15:46;3.77;;;2.80;;
5951;SDS011;3001;42.622;23.194;2022-09-12T00:18:14;3.53;;;3.17;;
5951;SDS011;3001;42.622;23.194;2022-09-12T00:20:42;3.43;;;3.30;;
5951;SDS011;3001;42.622;23.194;2022-09-12T00:23:09;2.90;;;2.80;;
5951;SDS011;3001;42.622;23.194;2022-09-12T00:25:39;3.67;;;3.47;;
5951;SDS011;3001;42.622;23.194;2022-09-12T00:28:08;3.20;;;3.10;;
5951;SDS011;3001;42.622;23.194;2022-09-12T00:30:38;2.37;;;2.30;;
5951;SDS011;3001;42.622;23.194;2022-09-12T00:33:06;2.97;;;2.77;;
5951;SDS011;3001;42.622;23.194;2022-09-12T00:35:33;2.77;;;2.57;;
5951;SDS011;3001;42.622;23.194;2022-09-12T00:38:00;2.70;;;2.60;;
5951;SDS011;3001;42.622;23.194;2022-09-12T00:40:27;2.70;;;2.60;;
5951;SDS011;3001;42.622;23.194;2022-09-12T00:42:53;2.83;;;2.53;;
5951;SDS011;3001;42.622;23.194;2022-09-12T00:45:23;2.77;;;2.67;;
5951;SDS011;3001;42.622;23.194;2022-09-12T00:47:53;3.03;;;2.80;;
5951;SDS011;3001;42.622;23.194;2022-09-12T00:50:23;2.80;;;2.70;;
5951;SDS011;3001;42.622;23.194;2022-09-12T00:52:51;2.90;;;2.80;;
5951;SDS011;3001;42.622;23.194;2022-09-12T00:55:22;2.57;;;2.47;;
5951;SDS011;3001;42.622;23.194;2022-09-12T00:57:54;2.40;;;2.30;;
5951;SDS011;3001;42.622;23.194;2022-09-12T01:00:26;2.70;;;2.60;;
5951;SDS011;3001;42.622;23.194;2022-09-12T01:02:55;2.27;;;2.17;;
5951;SDS011;3001;42.622;23.194;2022-09-12T01:05:25;2.27;;;2.00;;
5951;SDS011;3001;42.622;23.194;2022-09-12T01:07:55;2.20;;;2.00;;
5951;SDS011;3001;42.622;23.194;2022-09-12T01:10:22;2.50;;;2.40;;
5951;SDS011;3001;42.622;23.194;2022-09-12T01:12:49;4.30;;;2.80;;
5951;SDS011;3001;42.622;23.194;2022-09-12T01:15:16;2.20;;;2.10;;
5951;SDS011;3001;42.622;23.194;2022-09-12T01:17:50;2.80;;;2.10;;
5951;SDS011;3001;42.622;23.194;2022-09-12T01:20:34;2.10;;;2.00;;
5951;SDS011;3001;42.622;23.194;2022-09-12T01:23:32;2.13;;;1.90;;
5951;SDS011;3001;42.622;23.194;2022-09-12T01:26:25;2.23;;;2.13;;
5951;SDS011;3001;42.622;23.194;2022-09-12T01:29:32;2.97;;;1.87;;
5951;SDS011;3001;42.622;23.194;2022-09-12T01:32:13;1.73;;;1.73;;
5951;SDS011;3001;42.622;23.194;2022-09-12T01:34:48;1.60;;;1.60;;
5951;SDS011;3001;42.622;23.194;2022-09-12T01:37:20;2.60;;;1.80;;
5951;SDS011;3001;42.622;23.194;2022-09-12T01:39:54;1.70;;;1.60;;
5951;SDS011;3001;42.622;23.194;2022-09-12T01:42:30;1.70;;;1.60;;
5951;SDS011;3001;42.622;23.194;2022-09-12T01:45:04;4.23;;;2.07;;
5951;SDS011;3001;42.622;23.194;2022-09-12T01:47:40;1.83;;;1.83;;
5951;SDS011;3001;42.622;23.194;2022-09-12T01:50:12;2.00;;;1.63;;
5951;SDS011;3001;42.622;23.194;2022-09-12T01:52:43;1.90;;;1.80;;
5951;SDS011;3001;42.622;23.194;2022-09-12T01:55:15;1.87;;;1.87;;
5951;SDS011;3001;42.622;23.194;2022-09-12T01:57:48;4.10;;;2.07;;
5951;SDS011;3001;42.622;23.194;2022-09-12T02:00:19;1.70;;;1.60;;
5951;SDS011;3001;42.622;23.194;2022-09-12T02:02:48;1.80;;;1.70;;
5951;SDS011;3001;42.622;23.194;2022-09-12T02:05:19;2.03;;;1.73;;
5951;SDS011;3001;42.622;23.194;2022-09-12T02:07:52;1.80;;;1.80;;
5951;SDS011;3001;42.622;23.194;2022-09-12T02:10:25;1.70;;;1.70;;
5951;SDS011;3001;42.622;23.194;2022-09-12T02:12:57;2.37;;;2.27;;
5951;SDS011;3001;42.622;23.194;2022-09-12T02:15:31;1.60;;;1.60;;
5951;SDS011;3001;42.622;23.194;2022-09-12T02:18:03;1.50;;;1.50;;
5951;SDS011;3001;42.622;23.194;2022-09-12T02:20:33;1.40;;;1.40;;
5951;SDS011;3001;42.622;23.194;2022-09-12T02:23:02;3.17;;;2.67;;
5951;SDS011;3001;42.622;23.194;2022-09-12T02:25:33;1.77;;;1.43;;
5951;SDS011;3001;42.622;23.194;2022-09-12T02:28:06;2.17;;;1.67;;
5951;SDS011;3001;42.622;23.194;2022-09-12T02:30:38;1.50;;;1.40;;
5951;SDS011;3001;42.622;23.194;2022-09-12T02:33:13;4.47;;;1.57;;
5951;SDS011;3001;42.622;23.194;2022-09-12T02:35:46;2.37;;;2.27;;
5951;SDS011;3001;42.622;23.194;2022-09-12T02:38:19;4.80;;;1.63;;
5951;SDS011;3001;42.622;23.194;2022-09-12T02:40:50;2.33;;;1.53;;
5951;SDS011;3001;42.622;23.194;2022-09-12T02:43:17;1.30;;;1.30;;
5951;SDS011;3001;42.622;23.194;2022-09-12T02:45:44;1.70;;;1.60;;
5951;SDS011;3001;42.622;23.194;2022-09-12T02:48:13;2.00;;;1.50;;
5951;SDS011;3001;42.622;23.194;2022-09-12T02:50:45;2.23;;;1.70;;
5951;SDS011;3001;42.622;23.194;2022-09-12T02:53:12;1.43;;;1.37;;
5951;SDS011;3001;42.622;23.194;2022-09-12T02:55:39;1.77;;;1.67;;
5951;SDS011;3001;42.622;23.194;2022-09-12T02:58:08;1.50;;;1.37;;
5951;SDS011;3001;42.622;23.194;2022-09-12T03:00:40;1.67;;;1.57;;
5951;SDS011;3001;42.622;23.194;2022-09-12T03:03:24;1.60;;;1.50;;
5951;SDS011;3001;42.622;23.194;2022-09-12T03:06:02;1.70;;;1.67;;
5951;SDS011;3001;42.622;23.194;2022-09-12T03:08:45;1.47;;;1.47;;
5951;SDS011;3001;42.622;23.194;2022-09-12T03:14:50;1.43;;;1.43;;
5951;SDS011;3001;42.622;23.194;2022-09-12T03:17:28;2.73;;;1.70;;
5951;SDS011;3001;42.622;23.194;2022-09-12T03:20:08;1.70;;;1.60;;
5951;SDS011;3001;42.622;23.194;2022-09-12T03:22:40;1.80;;;1.80;;
5951;SDS011;3001;42.622;23.194;2022-09-12T03:25:16;2.03;;;1.93;;
5951;SDS011;3001;42.622;23.194;2022-09-12T03:27:50;1.53;;;1.40;;
5951;SDS011;3001;42.622;23.194;2022-09-12T03:30:21;1.77;;;1.67;;
5951;SDS011;3001;42.622;23.194;2022-09-12T03:32:49;2.60;;;1.43;;
5951;SDS011;3001;42.622;23.194;2022-09-12T03:35:19;1.83;;;1.73;;
5951;SDS011;3001;42.622;23.194;2022-09-12T03:37:48;3.00;;;1.60;;
5951;SDS011;3001;42.622;23.194;2022-09-12T03:40:16;1.83;;;1.73;;
5951;SDS011;3001;42.622;23.194;2022-09-12T03:42:43;2.27;;;2.00;;
5951;SDS011;3001;42.622;23.194;2022-09-12T03:45:10;1.70;;;1.70;;
5951;SDS011;3001;42.622;23.194;2022-09-12T03:47:36;2.83;;;1.70;;
5951;SDS011;3001;42.622;23.194;2022-09-12T03:50:03;1.93;;;1.83;;
5951;SDS011;3001;42.622;23.194;2022-09-12T03:52:32;1.67;;;1.67;;
5951;SDS011;3001;42.622;23.194;2022-09-12T03:54:59;3.00;;;2.90;;
5951;SDS011;3001;42.622;23.194;2022-09-12T03:57:26;2.70;;;2.50;;
5951;SDS011;3001;42.622;23.194;2022-09-12T03:59:53;7.20;;;3.17;;
5951;SDS011;3001;42.622;23.194;2022-09-12T04:02:19;2.63;;;2.50;;
5951;SDS011;3001;42.622;23.194;2022-09-12T04:04:46;2.73;;;2.47;;
5951;SDS011;3001;42.622;23.194;2022-09-12T04:07:13;2.90;;;2.80;;
5951;SDS011;3001;42.622;23.194;2022-09-12T04:09:41;2.73;;;2.63;;
5951;SDS011;3001;42.622;23.194;2022-09-12T04:12:08;3.23;;;3.07;;
5951;SDS011;3001;42.622;23.194;2022-09-12T04:14:35;3.60;;;3.40;;
5951;SDS011;3001;42.622;23.194;2022-09-12T04:17:02;5.43;;;3.70;;
5951;SDS011;3001;42.622;23.194;2022-09-12T04:19:29;3.90;;;3.70;;
5951;SDS011;3001;42.622;23.194;2022-09-12T04:21:56;4.50;;;4.30;;
5951;SDS011;3001;42.622;23.194;2022-09-12T04:24:23;3.67;;;3.37;;
5951;SDS011;3001;42.622;23.194;2022-09-12T04:26:51;4.53;;;4.33;;
5951;SDS011;3001;42.622;23.194;2022-09-12T04:29:18;4.73;;;4.50;;
5951;SDS011;3001;42.622;23.194;2022-09-12T04:31:45;5.23;;;4.73;;
5951;SDS011;3001;42.622;23.194;2022-09-12T04:34:12;6.73;;;6.33;;
5951;SDS011;3001;42.622;23.194;2022-09-12T04:36:39;6.67;;;6.27;;
5951;SDS011;3001;42.622;23.194;2022-09-12T04:39:06;6.50;;;6.10;;
5951;SDS011;3001;42.622;23.194;2022-09-12T04:41:33;7.37;;;6.77;;
5951;SDS011;3001;42.622;23.194;2022-09-12T04:44:04;7.90;;;7.30;;
5951;SDS011;3001;42.622;23.194;2022-09-12T04:46:34;6.83;;;6.43;;
5951;SDS011;3001;42.622;23.194;2022-09-12T04:49:02;7.63;;;6.93;;
5951;SDS011;3001;42.622;23.194;2022-09-12T04:51:30;7.70;;;6.93;;
5951;SDS011;3001;42.622;23.194;2022-09-12T04:54:01;7.40;;;7.00;;
5951;SDS011;3001;42.622;23.194;2022-09-12T04:56:30;7.60;;;7.20;;
5951;SDS011;3001;42.622;23.194;2022-09-12T04:58:59;9.47;;;8.87;;
5951;SDS011;3001;42.622;23.194;2022-09-12T05:01:28;8.63;;;8.03;;
5951;SDS011;3001;42.622;23.194;2022-09-12T05:03:55;8.33;;;7.63;;
5951;SDS011;3001;42.622;23.194;2022-09-12T05:06:24;6.90;;;6.60;;
5951;SDS011;3001;42.622;23.194;2022-09-12T05:08:52;7.00;;;6.37;;
5951;SDS011;3001;42.622;23.194;2022-09-12T05:11:21;7.50;;;7.10;;
5951;SDS011;3001;42.622;23.194;2022-09-12T05:13:49;6.80;;;6.40;;
5951;SDS011;3001;42.622;23.194;2022-09-12T05:16:16;8.30;;;6.40;;
5951;SDS011;3001;42.622;23.194;2022-09-12T05:18:45;7.97;;;7.37;;
5951;SDS011;3001;42.622;23.194;2022-09-12T05:21:13;8.17;;;7.67;;
5951;SDS011;3001;42.622;23.194;2022-09-12T05:23:42;7.30;;;6.80;;
5951;SDS011;3001;42.622;23.194;2022-09-12T05:26:09;6.77;;;6.37;;
5951;SDS011;3001;42.622;23.194;2022-09-12T05:28:38;6.60;;;6.30;;
5951;SDS011;3001;42.622;23.194;2022-09-12T05:31:05;7.87;;;7.30;;
5951;SDS011;3001;42.622;23.194;2022-09-12T05:33:35;7.20;;;6.70;;
5951;SDS011;3001;42.622;23.194;2022-09-12T05:36:04;6.37;;;5.87;;
5951;SDS011;3001;42.622;23.194;2022-09-12T05:38:33;7.13;;;6.73;;
5951;SDS011;3001;42.622;23.194;2022-09-12T05:41:03;8.07;;;7.57;;
5951;SDS011;3001;42.622;23.194;2022-09-12T05:43:31;6.93;;;6.53;;
5951;SDS011;3001;42.622;23.194;2022-09-12T05:46:01;7.23;;;6.83;;
5951;SDS011;3001;42.622;23.194;2022-09-12T05:48:28;6.40;;;6.10;;
5951;SDS011;3001;42.622;23.194;2022-09-12T05:50:58;6.73;;;6.33;;
5951;SDS011;3001;42.622;23.194;2022-09-12T05:53:29;7.00;;;6.60;;
5951;SDS011;3001;42.622;23.194;2022-09-12T05:56:03;6.70;;;6.40;;
5951;SDS011;3001;42.622;23.194;2022-09-12T05:58:31;5.70;;;5.40;;
5951;SDS011;3001;42.622;23.194;2022-09-12T06:01:02;6.97;;;6.57;;
5951;SDS011;3001;42.622;23.194;2022-09-12T06:03:32;7.13;;;6.63;;
5951;SDS011;3001;42.622;23.194;2022-09-12T06:06:03;6.80;;;6.50;;
5951;SDS011;3001;42.622;23.194;2022-09-12T06:08:32;6.30;;;6.00;;
5951;SDS011;3001;42.622;23.194;2022-09-12T06:11:00;7.23;;;6.77;;
5951;SDS011;3001;42.622;23.194;2022-09-12T06:13:29;6.13;;;5.77;;
5951;SDS011;3001;42.622;23.194;2022-09-12T06:16:01;5.93;;;5.63;;
5951;SDS011;3001;42.622;23.194;2022-09-12T06:18:29;6.50;;;6.20;;
5951;SDS011;3001;42.622;23.194;2022-09-12T06:20:56;7.17;;;6.70;;
5951;SDS011;3001;42.622;23.194;2022-09-12T06:23:23;6.63;;;6.00;;
5951;SDS011;3001;42.622;23.194;2022-09-12T06:25:52;6.03;;;5.83;;
5951;SDS011;3001;42.622;23.194;2022-09-12T06:28:19;5.77;;;5.57;;
5951;SDS011;3001;42.622;23.194;2022-09-12T06:30:46;6.33;;;6.03;;
5951;SDS011;3001;42.622;23.194;2022-09-12T06:33:13;6.97;;;6.57;;
5951;SDS011;3001;42.622;23.194;2022-09-12T06:35:39;6.63;;;6.33;;
5951;SDS011;3001;42.622;23.194;2022-09-12T06:38:06;6.80;;;6.40;;
5951;SDS011;3001;42.622;23.194;2022-09-12T06:40:34;7.33;;;6.93;;
5951;SDS011;3001;42.622;23.194;2022-09-12T06:43:09;7.50;;;7.20;;
5951;SDS011;3001;42.622;23.194;2022-09-12T06:45:37;7.60;;;7.20;;
5951;SDS011;3001;42.622;23.194;2022-09-12T06:48:04;8.37;;;7.97;;
5951;SDS011;3001;42.622;23.194;2022-09-12T06:50:31;8.10;;;7.60;;
5951;SDS011;3001;42.622;23.194;2022-09-12T06:52:58;7.87;;;7.47;;
5951;SDS011;3001;42.622;23.194;2022-09-12T06:55:24;7.33;;;7.03;;
5951;SDS011;3001;42.622;23.194;2022-09-12T06:57:53;8.03;;;7.63;;
5951;SDS011;3001;42.622;23.194;2022-09-12T07:00:21;6.93;;;6.63;;
5951;SDS011;3001;42.622;23.194;2022-09-12T07:02:50;6.33;;;6.03;;
5951;SDS011;3001;42.622;23.194;2022-09-12T07:05:19;6.73;;;6.43;;
5951;SDS011;3001;42.622;23.194;2022-09-12T07:07:46;7.37;;;7.07;;
5951;SDS011;3001;42.622;23.194;2022-09-12T07:10:12;7.63;;;6.83;;
5951;SDS011;3001;42.622;23.194;2022-09-12T07:12:40;7.03;;;6.43;;
5951;SDS011;3001;42.622;23.194;2022-09-12T07:15:07;7.60;;;7.10;;
5951;SDS011;3001;42.622;23.194;2022-09-12T07:17:36;5.97;;;5.67;;
5951;SDS011;3001;42.622;23.194;2022-09-12T07:20:02;6.90;;;6.60;;
5951;SDS011;3001;42.622;23.194;2022-09-12T07:22:30;7.47;;;7.17;;
5951;SDS011;3001;42.622;23.194;2022-09-12T07:24:56;6.27;;;5.97;;
5951;SDS011;3001;42.622;23.194;2022-09-12T07:27:23;6.83;;;6.33;;
5951;SDS011;3001;42.622;23.194;2022-09-12T07:29:50;6.37;;;6.07;;
5951;SDS011;3001;42.622;23.194;2022-09-12T07:32:16;6.20;;;5.90;;
5951;SDS011;3001;42.622;23.194;2022-09-12T07:34:44;8.17;;;7.57;;
5951;SDS011;3001;42.622;23.194;2022-09-12T07:37:11;8.30;;;7.60;;
5951;SDS011;3001;42.622;23.194;2022-09-12T07:39:38;9.00;;;8.30;;
5951;SDS011;3001;42.622;23.194;2022-09-12T07:42:04;7.27;;;6.87;;
5951;SDS011;3001;42.622;23.194;2022-09-12T07:44:32;7.77;;;7.27;;
5951;SDS011;3001;42.622;23.194;2022-09-12T07:46:58;6.60;;;6.30;;
5951;SDS011;3001;42.622;23.194;2022-09-12T07:49:26;7.00;;;6.70;;
5951;SDS011;3001;42.622;23.194;2022-09-12T07:51:54;7.03;;;6.63;;
5951;SDS011;3001;42.622;23.194;2022-09-12T07:54:22;7.00;;;6.70;;
5951;SDS011;3001;42.622;23.194;2022-09-12T07:56:48;7.60;;;7.20;;
5951;SDS011;3001;42.622;23.194;2022-09-12T07:59:15;7.50;;;7.10;;
5951;SDS011;3001;42.622;23.194;2022-09-12T08:01:42;6.27;;;5.97;;
5951;SDS011;3001;42.622;23.194;2022-09-12T08:04:09;6.30;;;6.00;;
5951;SDS011;3001;42.622;23.194;2022-09-12T08:06:36;5.87;;;5.57;;
5951;SDS011;3001;42.622;23.194;2022-09-12T08:09:04;6.07;;;5.67;;
5951;SDS011;3001;42.622;23.194;2022-09-12T08:11:32;6.53;;;6.20;;
5951;SDS011;3001;42.622;23.194;2022-09-12T08:13:58;6.47;;;6.10;;
5951;SDS011;3001;42.622;23.194;2022-09-12T08:16:28;5.77;;;5.47;;
5951;SDS011;3001;42.622;23.194;2022-09-12T08:18:56;5.47;;;5.17;;
5951;SDS011;3001;42.622;23.194;2022-09-12T08:21:24;4.77;;;4.57;;
5951;SDS011;3001;42.622;23.194;2022-09-12T08:23:52;4.90;;;4.60;;
5951;SDS011;3001;42.622;23.194;2022-09-12T08:26:21;4.63;;;4.37;;
5951;SDS011;3001;42.622;23.194;2022-09-12T08:28:48;4.77;;;4.57;;
5951;SDS011;3001;42.622;23.194;2022-09-12T08:31:17;4.70;;;4.40;;
5951;SDS011;3001;42.622;23.194;2022-09-12T08:33:45;4.43;;;4.17;;
5951;SDS011;3001;42.622;23.194;2022-09-12T08:36:12;4.13;;;3.93;;
5951;SDS011;3001;42.622;23.194;2022-09-12T08:38:40;4.07;;;3.87;;
5951;SDS011;3001;42.622;23.194;2022-09-12T08:41:09;3.87;;;3.77;;
5951;SDS011;3001;42.622;23.194;2022-09-12T08:43:48;3.90;;;3.80;;
5951;SDS011;3001;42.622;23.194;2022-09-12T08:46:43;3.63;;;3.53;;
5951;SDS011;3001;42.622;23.194;2022-09-12T08:49:19;3.77;;;3.60;;
5951;SDS011;3001;42.622;23.194;2022-09-12T08:51:52;4.70;;;4.50;;
5951;SDS011;3001;42.622;23.194;2022-09-12T08:54:22;4.47;;;4.27;;
5951;SDS011;3001;42.622;23.194;2022-09-12T08:56:51;4.73;;;4.53;;
5951;SDS011;3001;42.622;23.194;2022-09-12T08:59:28;4.77;;;4.57;;
5951;SDS011;3001;42.622;23.194;2022-09-12T09:02:00;5.23;;;5.03;;
5951;SDS011;3001;42.622;23.194;2022-09-12T09:04:32;5.10;;;4.90;;
5951;SDS011;3001;42.622;23.194;2022-09-12T09:07:17;5.10;;;4.90;;
5951;SDS011;3001;42.622;23.194;2022-09-12T09:10:07;5.20;;;5.00;;
5951;SDS011;3001;42.622;23.194;2022-09-12T09:12:45;5.10;;;4.80;;
5951;SDS011;3001;42.622;23.194;2022-09-12T09:15:25;4.53;;;4.33;;
5951;SDS011;3001;42.622;23.194;2022-09-12T09:18:03;5.17;;;4.80;;
5951;SDS011;3001;42.622;23.194;2022-09-12T09:20:37;5.00;;;4.80;;
5951;SDS011;3001;42.622;23.194;2022-09-12T09:23:12;5.03;;;4.83;;
5951;SDS011;3001;42.622;23.194;2022-09-12T09:25:47;6.00;;;5.70;;
5951;SDS011;3001;42.622;23.194;2022-09-12T09:28:21;10.13;;;9.13;;
5951;SDS011;3001;42.622;23.194;2022-09-12T09:30:52;8.20;;;7.70;;
5951;SDS011;3001;42.622;23.194;2022-09-12T09:33:20;7.17;;;6.80;;
5951;SDS011;3001;42.622;23.194;2022-09-12T09:35:51;6.00;;;5.70;;
5951;SDS011;3001;42.622;23.194;2022-09-12T09:38:26;6.17;;;5.80;;
5951;SDS011;3001;42.622;23.194;2022-09-12T09:41:10;6.07;;;5.87;;
5951;SDS011;3001;42.622;23.194;2022-09-12T09:43:48;5.73;;;5.53;;
5951;SDS011;3001;42.622;23.194;2022-09-12T09:46:16;5.90;;;5.43;;
5951;SDS011;3001;42.622;23.194;2022-09-12T09:48:43;5.47;;;5.27;;
5951;SDS011;3001;42.622;23.194;2022-09-12T09:51:14;5.03;;;4.83;;
5951;SDS011;3001;42.622;23.194;2022-09-12T09:53:44;4.83;;;4.63;;
5951;SDS011;3001;42.622;23.194;2022-09-12T09:56:14;5.87;;;5.60;;
5951;SDS011;3001;42.622;23.194;2022-09-12T09:58:51;6.03;;;5.63;;
5951;SDS011;3001;42.622;23.194;2022-09-12T10:01:20;5.47;;;5.27;;
5951;SDS011;3001;42.622;23.194;2022-09-12T10:03:47;5.83;;;5.60;;
5951;SDS011;3001;42.622;23.194;2022-09-12T10:06:25;5.07;;;4.87;;
5951;SDS011;3001;42.622;23.194;2022-09-12T10:09:05;6.73;;;6.33;;
5951;SDS011;3001;42.622;23.194;2022-09-12T10:11:43;6.00;;;5.70;;
5951;SDS011;3001;42.622;23.194;2022-09-12T10:14:24;5.93;;;5.63;;
5951;SDS011;3001;42.622;23.194;2022-09-12T10:17:20;6.73;;;6.37;;
5951;SDS011;3001;42.622;23.194;2022-09-12T10:19:49;6.03;;;5.60;;
5951;SDS011;3001;42.622;23.194;2022-09-12T10:22:17;6.43;;;5.97;;
5951;SDS011;3001;42.622;23.194;2022-09-12T10:24:47;7.90;;;7.27;;
5951;SDS011;3001;42.622;23.194;2022-09-12T10:27:17;5.07;;;4.87;;
5951;SDS011;3001;42.622;23.194;2022-09-12T10:29:48;5.17;;;4.97;;
5951;SDS011;3001;42.622;23.194;2022-09-12T10:32:22;5.83;;;5.50;;
5951;SDS011;3001;42.622;23.194;2022-09-12T10:34:54;5.00;;;4.80;;
5951;SDS011;3001;42.622;23.194;2022-09-12T10:37:25;5.90;;;5.63;;
5951;SDS011;3001;42.622;23.194;2022-09-12T10:39:56;5.90;;;5.70;;
5951;SDS011;3001;42.622;23.194;2022-09-12T10:45:17;6.67;;;6.37;;
5951;SDS011;3001;42.622;23.194;2022-09-12T10:47:47;5.70;;;5.50;;
5951;SDS011;3001;42.622;23.194;2022-09-12T10:53:12;5.77;;;5.47;;
5951;SDS011;3001;42.622;23.194;2022-09-12T10:55:48;5.53;;;5.33;;
5951;SDS011;3001;42.622;23.194;2022-09-12T10:58:33;5.57;;;5.37;;
5951;SDS011;3001;42.622;23.194;2022-09-12T11:01:10;5.90;;;5.60;;
5951;SDS011;3001;42.622;23.194;2022-09-12T11:03:52;5.47;;;5.27;;
5951;SDS011;3001;42.622;23.194;2022-09-12T11:06:32;5.67;;;5.47;;
5951;SDS011;3001;42.622;23.194;2022-09-12T11:09:08;8.30;;;7.80;;
5951;SDS011;3001;42.622;23.194;2022-09-12T11:11:49;5.63;;;5.37;;
5951;SDS011;3001;42.622;23.194;2022-09-12T11:14:33;6.10;;;5.80;;
5951;SDS011;3001;42.622;23.194;2022-09-12T11:17:17;6.57;;;6.17;;
5951;SDS011;3001;42.622;23.194;2022-09-12T11:19:59;5.87;;;5.67;;
5951;SDS011;3001;42.622;23.194;2022-09-12T11:22:35;7.20;;;6.80;;
5951;SDS011;3001;42.622;23.194;2022-09-12T11:25:27;6.60;;;6.30;;
5951;SDS011;3001;42.622;23.194;2022-09-12T11:28:09;7.00;;;6.60;;
5951;SDS011;3001;42.622;23.194;2022-09-12T11:30:54;6.53;;;6.23;;
5951;SDS011;3001;42.622;23.194;2022-09-12T11:33:34;6.73;;;6.43;;
5951;SDS011;3001;42.622;23.194;2022-09-12T11:36:11;6.33;;;6.07;;
5951;SDS011;3001;42.622;23.194;2022-09-12T11:38:55;7.00;;;6.70;;
5951;SDS011;3001;42.622;23.194;2022-09-12T11:41:29;7.13;;;6.73;;
5951;SDS011;3001;42.622;23.194;2022-09-12T11:43:59;8.83;;;8.33;;
5951;SDS011;3001;42.622;23.194;2022-09-12T11:46:36;8.77;;;8.20;;
5951;SDS011;3001;42.622;23.194;2022-09-12T11:49:05;7.03;;;6.73;;
5951;SDS011;3001;42.622;23.194;2022-09-12T11:51:43;8.07;;;7.47;;
5951;SDS011;3001;42.622;23.194;2022-09-12T11:54:17;8.60;;;8.20;;
5951;SDS011;3001;42.622;23.194;2022-09-12T11:56:49;8.17;;;7.77;;
5951;SDS011;3001;42.622;23.194;2022-09-12T11:59:27;7.70;;;7.30;;
5951;SDS011;3001;42.622;23.194;2022-09-12T12:01:58;8.10;;;7.70;;
5951;SDS011;3001;42.622;23.194;2022-09-12T12:04:29;5.90;;;5.70;;
5951;SDS011;3001;42.622;23.194;2022-09-12T12:07:04;5.33;;;5.13;;
5951;SDS011;3001;42.622;23.194;2022-09-12T12:09:31;4.87;;;4.67;;
5951;SDS011;3001;42.622;23.194;2022-09-12T12:11:59;5.23;;;5.03;;
5951;SDS011;3001;42.622;23.194;2022-09-12T12:14:34;5.13;;;4.93;;
5951;SDS011;3001;42.622;23.194;2022-09-12T12:17:11;5.53;;;5.33;;
5951;SDS011;3001;42.622;23.194;2022-09-12T12:19:40;5.87;;;5.57;;
5951;SDS011;3001;42.622;23.194;2022-09-12T12:22:15;5.13;;;4.90;;
5951;SDS011;3001;42.622;23.194;2022-09-12T12:24:58;6.60;;;5.77;;
5951;SDS011;3001;42.622;23.194;2022-09-12T12:27:47;6.27;;;5.83;;
5951;SDS011;3001;42.622;23.194;2022-09-12T12:36:30;3.80;;;3.70;;
5951;SDS011;3001;42.622;23.194;2022-09-12T12:39:53;4.10;;;3.90;;
5951;SDS011;3001;42.622;23.194;2022-09-12T12:48:28;3.47;;;3.17;;
5951;SDS011;3001;42.622;23.194;2022-09-12T12:51:21;4.23;;;4.13;;
5951;SDS011;3001;42.622;23.194;2022-09-12T12:53:54;3.20;;;3.10;;
5951;SDS011;3001;42.622;23.194;2022-09-12T12:56:31;3.40;;;3.10;;
5951;SDS011;3001;42.622;23.194;2022-09-12T12:59:10;3.23;;;3.03;;
5951;SDS011;3001;42.622;23.194;2022-09-12T13:01:48;3.53;;;3.43;;
5951;SDS011;3001;42.622;23.194;2022-09-12T13:04:19;3.53;;;3.43;;
5951;SDS011;3001;42.622;23.194;2022-09-12T13:06:54;3.80;;;3.70;;
5951;SDS011;3001;42.622;23.194;2022-09-12T13:09:25;3.47;;;3.37;;
5951;SDS011;3001;42.622;23.194;2022-09-12T13:11:58;3.90;;;3.80;;
5951;SDS011;3001;42.622;23.194;2022-09-12T13:14:33;3.80;;;3.67;;
5951;SDS011;3001;42.622;23.194;2022-09-12T13:17:03;4.40;;;4.10;;
5951;SDS011;3001;42.622;23.194;2022-09-12T13:19:32;3.70;;;3.60;;
5951;SDS011;3001;42.622;23.194;2022-09-12T13:22:03;4.10;;;3.80;;
5951;SDS011;3001;42.622;23.194;2022-09-12T13:24:31;3.50;;;3.40;;
5951;SDS011;3001;42.622;23.194;2022-09-12T13:26:59;3.60;;;3.50;;
5951;SDS011;3001;42.622;23.194;2022-09-12T13:29:27;3.93;;;3.83;;
5951;SDS011;3001;42.622;23.194;2022-09-12T13:31:54;3.87;;;3.60;;
5951;SDS011;3001;42.622;23.194;2022-09-12T13:34:23;3.90;;;3.80;;
5951;SDS011;3001;42.622;23.194;2022-09-12T13:37:02;4.07;;;3.97;;
5951;SDS011;3001;42.622;23.194;2022-09-12T13:39:44;4.53;;;4.33;;
5951;SDS011;3001;42.622;23.194;2022-09-12T13:42:36;4.70;;;4.50;;
5951;SDS011;3001;42.622;23.194;2022-09-12T13:45:05;4.97;;;4.77;;
5951;SDS011;3001;42.622;23.194;2022-09-12T13:47:38;4.60;;;4.50;;
5951;SDS011;3001;42.622;23.194;2022-09-12T13:50:07;4.57;;;4.40;;
5951;SDS011;3001;42.622;23.194;2022-09-12T13:52:41;4.67;;;4.37;;
5951;SDS011;3001;42.622;23.194;2022-09-12T13:55:17;5.03;;;4.83;;
5951;SDS011;3001;42.622;23.194;2022-09-12T13:57:59;5.20;;;5.00;;
5951;SDS011;3001;42.622;23.194;2022-09-12T14:00:27;5.57;;;5.37;;
5951;SDS011;3001;42.622;23.194;2022-09-12T14:02:56;5.53;;;5.17;;
5951;SDS011;3001;42.622;23.194;2022-09-12T14:05:37;5.37;;;5.17;;
5951;SDS011;3001;42.622;23.194;2022-09-12T14:08:05;5.53;;;5.33;;
5951;SDS011;3001;42.622;23.194;2022-09-12T14:10:34;5.37;;;5.17;;
5951;SDS011;3001;42.622;23.194;2022-09-12T14:13:09;5.23;;;5.03;;
5951;SDS011;3001;42.622;23.194;2022-09-12T14:15:38;5.97;;;5.77;;
5951;SDS011;3001;42.622;23.194;2022-09-12T14:18:18;6.83;;;6.20;;
5951;SDS011;3001;42.622;23.194;2022-09-12T14:20:48;5.60;;;5.40;;
5951;SDS011;3001;42.622;23.194;2022-09-12T14:23:20;6.10;;;5.90;;
5951;SDS011;3001;42.622;23.194;2022-09-12T14:25:52;6.90;;;6.60;;
5951;SDS011;3001;42.622;23.194;2022-09-12T14:28:21;6.40;;;6.20;;
5951;SDS011;3001;42.622;23.194;2022-09-12T14:31:01;5.67;;;5.47;;
5951;SDS011;3001;42.622;23.194;2022-09-12T14:33:31;5.40;;;5.20;;
5951;SDS011;3001;42.622;23.194;2022-09-12T14:36:07;6.83;;;6.53;;
5951;SDS011;3001;42.622;23.194;2022-09-12T14:38:36;6.40;;;6.10;;
5951;SDS011;3001;42.622;23.194;2022-09-12T14:41:08;6.23;;;5.93;;
5951;SDS011;3001;42.622;23.194;2022-09-12T14:43:38;6.87;;;6.57;;
5951;SDS011;3001;42.622;23.194;2022-09-12T14:46:13;4.70;;;4.50;;
5951;SDS011;3001;42.622;23.194;2022-09-12T14:48:43;4.93;;;4.73;;
5951;SDS011;3001;42.622;23.194;2022-09-12T14:51:16;4.30;;;4.20;;
5951;SDS011;3001;42.622;23.194;2022-09-12T14:53:47;5.40;;;5.20;;
5951;SDS011;3001;42.622;23.194;2022-09-12T14:56:14;4.97;;;4.77;;
5951;SDS011;3001;42.622;23.194;2022-09-12T14:58:42;5.20;;;5.00;;
5951;SDS011;3001;42.622;23.194;2022-09-12T15:01:22;5.37;;;4.40;;
5951;SDS011;3001;42.622;23.194;2022-09-12T15:03:51;3.97;;;3.87;;
5951;SDS011;3001;42.622;23.194;2022-09-12T15:06:21;5.23;;;4.97;;
5951;SDS011;3001;42.622;23.194;2022-09-12T15:08:50;4.80;;;4.60;;
5951;SDS011;3001;42.622;23.194;2022-09-12T15:11:18;4.67;;;4.47;;
5951;SDS011;3001;42.622;23.194;2022-09-12T15:13:46;4.67;;;4.37;;
5951;SDS011;3001;42.622;23.194;2022-09-12T15:16:13;5.87;;;5.50;;
5951;SDS011;3001;42.622;23.194;2022-09-12T15:18:40;5.43;;;5.13;;
5951;SDS011;3001;42.622;23.194;2022-09-12T15:21:09;4.70;;;4.50;;
5951;SDS011;3001;42.622;23.194;2022-09-12T15:23:40;4.60;;;4.40;;
5951;SDS011;3001;42.622;23.194;2022-09-12T15:26:10;5.27;;;4.97;;
5951;SDS011;3001;42.622;23.194;2022-09-12T15:28:37;4.77;;;4.57;;
5951;SDS011;3001;42.622;23.194;2022-09-12T15:31:06;4.70;;;4.50;;
5951;SDS011;3001;42.622;23.194;2022-09-12T15:33:37;4.87;;;4.67;;
5951;SDS011;3001;42.622;23.194;2022-09-12T15:36:04;4.57;;;4.37;;
5951;SDS011;3001;42.622;23.194;2022-09-12T15:38:39;4.70;;;4.40;;
5951;SDS011;3001;42.622;23.194;2022-09-12T15:41:08;5.80;;;5.60;;
5951;SDS011;3001;42.622;23.194;2022-09-12T15:43:36;4.87;;;4.57;;
5951;SDS011;3001;42.622;23.194;2022-09-12T15:46:03;4.70;;;4.50;;
5951;SDS011;3001;42.622;23.194;2022-09-12T15:48:32;4.60;;;4.40;;